Time;durP1;ratioP1;P1;durP2;ratioP2;P2;SDS_P1;SDS_P2;PMS_P1;PMS_P2;Temp;Humidity;BMP_temperature;BMP_pressure;BME280_temperature;BME280_humidity;BME280_pressure;Samples;Min_cycle;Max_cycle;Signal;HPM_P1;HPM_P2
2023/03/06 00:01:19;;;;;;;2.42;1.23;;;31.10;92.50;;;;;;5104083;27;20199;-79
2023/03/06 00:03:50;;;;;;;1.30;1.00;;;31.20;91.90;;;;;;5101688;28;20198;-78
2023/03/06 00:06:22;;;;;;;4.55;1.27;;;31.30;90.20;;;;;;5113666;28;20669;-77
2023/03/06 00:08:53;;;;;;;3.67;1.30;;;31.30;90.00;;;;;;5098169;27;20214;-78
2023/03/06 00:11:24;;;;;;;3.22;1.20;;;31.50;89.10;;;;;;5102086;28;20210;-79
2023/03/06 00:13:57;;;;;;;1.52;1.00;;;31.50;90.20;;;;;;5100203;28;20222;-78
2023/03/06 00:16:28;;;;;;;3.72;1.40;;;31.70;89.60;;;;;;5100616;28;20227;-79
2023/03/06 00:18:59;;;;;;;4.45;1.20;;;31.70;86.70;;;;;;5111855;28;20210;-78
2023/03/06 00:21:30;;;;;;;5.15;1.23;;;31.80;87.40;;;;;;5099061;28;20665;-79
2023/03/06 00:24:01;;;;;;;3.78;1.00;;;31.80;87.10;;;;;;5093274;28;20218;-78
2023/03/06 00:26:32;;;;;;;3.60;1.20;;;32.00;86.20;;;;;;5106039;28;20604;-79
2023/03/06 00:29:05;;;;;;;1.73;1.15;;;32.10;84.90;;;;;;5112026;28;20239;-78
2023/03/06 00:31:37;;;;;;;2.22;0.90;;;32.10;83.00;;;;;;5106467;28;20199;-78
2023/03/06 00:34:08;;;;;;;2.20;1.20;;;32.20;81.70;;;;;;5095003;28;20230;-78
2023/03/06 00:36:39;;;;;;;2.90;1.10;;;32.30;83.10;;;;;;5099715;28;20219;-78
2023/03/06 00:39:10;;;;;;;5.20;1.10;;;32.30;80.60;;;;;;5096748;28;20199;-80
2023/03/06 00:41:41;;;;;;;1.63;1.10;;;32.40;79.40;;;;;;5095370;28;20191;-79
2023/03/06 00:44:14;;;;;;;4.80;1.27;;;32.40;78.40;;;;;;5109427;28;20186;-77
2023/03/06 00:46:45;;;;;;;4.38;1.30;;;32.50;78.00;;;;;;5094049;28;20200;-79
2023/03/06 00:49:16;;;;;;;3.10;1.10;;;32.60;75.90;;;;;;5106648;28;20198;-79
2023/03/06 00:51:47;;;;;;;2.10;1.00;;;32.60;76.10;;;;;;5112776;28;20191;-79
2023/03/06 00:54:18;;;;;;;4.00;1.15;;;32.70;74.70;;;;;;5099558;28;20194;-78
2023/03/06 00:56:49;;;;;;;3.72;1.38;;;32.80;74.30;;;;;;5091892;28;20694;-78
2023/03/06 00:59:22;;;;;;;3.00;1.27;;;32.90;72.20;;;;;;5100460;28;20680;-78
2023/03/06 01:01:53;;;;;;;3.05;1.20;;;32.90;71.10;;;;;;5094967;28;20191;-78
2023/03/06 01:04:24;;;;;;;3.88;1.38;;;33.00;69.30;;;;;;5098372;28;20203;-78
2023/03/06 01:06:55;;;;;;;2.25;1.48;;;33.10;69.20;;;;;;5095561;28;20213;-77
2023/03/06 01:09:26;;;;;;;4.32;1.20;;;33.10;69.40;;;;;;5094330;28;20203;-77
2023/03/06 01:11:58;;;;;;;1.85;1.20;;;33.20;68.30;;;;;;5092077;28;20195;-78
2023/03/06 01:14:31;;;;;;;3.03;1.33;;;33.20;67.20;;;;;;5108472;28;20221;-78
2023/03/06 01:17:02;;;;;;;2.40;1.30;;;33.20;67.10;;;;;;5096942;28;20763;-78
2023/03/06 01:19:33;;;;;;;2.10;1.10;;;33.30;67.40;;;;;;5106999;28;20209;-78
2023/03/06 01:22:04;;;;;;;1.50;1.10;;;33.40;66.00;;;;;;5093960;28;20203;-77
2023/03/06 01:24:35;;;;;;;3.13;1.00;;;33.40;66.30;;;;;;5110245;28;20195;-78
2023/03/06 01:27:06;;;;;;;3.30;1.20;;;33.50;65.00;;;;;;5110580;28;20217;-78
2023/03/06 01:29:40;;;;;;;3.22;1.20;;;33.50;64.10;;;;;;5092123;28;20316;-77
2023/03/06 01:32:11;;;;;;;4.85;1.20;;;33.60;64.90;;;;;;5097362;28;20560;-78
2023/03/06 01:34:43;;;;;;;2.33;1.13;;;33.70;65.00;;;;;;5109659;28;20232;-78
2023/03/06 01:37:14;;;;;;;3.30;1.20;;;33.70;63.20;;;;;;5110832;28;20190;-78
2023/03/06 01:39:45;;;;;;;2.42;1.15;;;33.90;63.30;;;;;;5110457;28;20645;-77
2023/03/06 01:42:16;;;;;;;3.83;1.30;;;33.90;61.90;;;;;;5110272;28;20194;-77
2023/03/06 01:45:08;;;;;;;1.27;0.98;;;33.90;61.00;;;;;;5091315;28;20199;-77
2023/03/06 01:47:39;;;;;;;3.33;1.20;;;34.00;62.20;;;;;;5101934;28;20186;-78
2023/03/06 01:50:13;;;;;;;1.58;1.20;;;34.10;63.40;;;;;;5106465;28;20549;-78
2023/03/06 01:52:49;;;;;;;3.05;1.20;;;34.30;63.10;;;;;;5095815;28;20191;-77
2023/03/06 01:55:23;;;;;;;2.90;0.98;;;34.30;60.00;;;;;;5091045;28;20219;-77
2023/03/06 01:57:57;;;;;;;1.48;0.82;;;34.40;60.20;;;;;;5098570;28;20210;-78
2023/03/06 02:00:32;;;;;;;4.47;1.10;;;34.40;59.50;;;;;;5106642;28;20194;-78
2023/03/06 02:03:08;;;;;;;2.58;1.15;;;34.50;59.20;;;;;;5106925;28;20660;-77
2023/03/06 02:05:41;;;;;;;2.42;1.20;;;34.50;57.90;;;;;;5090401;28;20202;-77
2023/03/06 02:08:13;;;;;;;2.92;1.10;;;34.50;57.90;;;;;;5091834;28;20207;-78
2023/03/06 02:10:51;;;;;;;2.03;0.90;;;34.60;58.40;;;;;;5098723;28;20214;-76
2023/03/06 02:13:23;;;;;;;1.48;0.98;;;34.60;57.50;;;;;;5109492;28;20197;-76
2023/03/06 02:15:56;;;;;;;3.67;1.10;;;34.70;56.60;;;;;;5110646;28;20250;-77
2023/03/06 02:18:27;;;;;;;1.25;0.95;;;34.80;56.70;;;;;;5114181;28;20209;-78
2023/03/06 02:21:02;;;;;;;2.58;0.90;;;34.90;54.10;;;;;;5104938;28;20195;-77
2023/03/06 02:23:38;;;;;;;2.95;0.90;;;35.00;53.50;;;;;;5099935;28;20198;-77
2023/03/06 02:26:13;;;;;;;2.78;1.00;;;35.10;52.70;;;;;;5098457;28;20226;-78
2023/03/06 02:28:44;;;;;;;4.32;1.13;;;35.10;51.50;;;;;;5108980;28;20191;-78
2023/03/06 02:31:24;;;;;;;1.92;0.95;;;35.30;50.90;;;;;;5101901;28;20190;-77
2023/03/06 02:34:07;;;;;;;4.30;0.90;;;35.30;50.90;;;;;;5093943;28;20194;-76
2023/03/06 02:36:42;;;;;;;3.70;0.90;;;35.30;50.90;;;;;;5103911;28;20225;-77
2023/03/06 02:39:15;;;;;;;2.47;0.80;;;35.40;50.80;;;;;;5107275;28;20607;-77
2023/03/06 02:41:48;;;;;;;1.52;0.80;;;35.50;50.60;;;;;;5098501;28;20195;-77
2023/03/06 02:44:19;;;;;;;0.85;0.80;;;35.50;49.70;;;;;;5096824;28;20190;-77
2023/03/06 02:46:50;;;;;;;2.78;0.98;;;35.50;49.80;;;;;;5100891;28;20561;-78
2023/03/06 02:49:21;;;;;;;3.67;1.02;;;35.60;49.10;;;;;;5110122;28;20191;-76
2023/03/06 02:51:52;;;;;;;2.42;1.05;;;35.70;49.10;;;;;;5107133;28;20191;-77
2023/03/06 02:54:23;;;;;;;4.53;1.08;;;35.70;47.60;;;;;;5092520;28;20874;-77
2023/03/06 02:56:56;;;;;;;1.88;1.00;;;35.80;48.00;;;;;;5098301;28;20601;-77
2023/03/06 02:59:28;;;;;;;2.10;1.20;;;35.90;47.40;;;;;;5100432;28;20195;-76
2023/03/06 03:01:59;;;;;;;3.70;1.10;;;36.00;47.00;;;;;;5094338;28;20203;-78
2023/03/06 03:04:30;;;;;;;1.50;0.80;;;36.00;46.90;;;;;;5094834;28;20193;-78
2023/03/06 03:07:01;;;;;;;5.18;1.20;;;36.10;47.20;;;;;;5099097;28;20203;-77
2023/03/06 03:09:35;;;;;;;1.48;0.90;;;36.20;47.40;;;;;;5093459;28;20611;-78
2023/03/06 03:12:10;;;;;;;5.82;1.20;;;36.30;46.80;;;;;;5092555;28;20294;-78
2023/03/06 03:14:41;;;;;;;3.25;0.80;;;36.30;45.40;;;;;;5090666;28;20201;-78
2023/03/06 03:17:12;;;;;;;3.22;0.88;;;36.40;45.90;;;;;;5105947;28;20226;-77
2023/03/06 03:19:43;;;;;;;3.22;1.02;;;36.40;46.10;;;;;;5110072;28;20198;-78
2023/03/06 03:22:14;;;;;;;4.68;1.17;;;36.50;45.20;;;;;;5107836;28;20198;-78
2023/03/06 03:24:45;;;;;;;4.32;1.00;;;36.60;44.30;;;;;;5104278;28;20226;-77
2023/03/06 03:27:19;;;;;;;4.22;0.80;;;36.70;43.90;;;;;;5094785;28;20221;-78
2023/03/06 03:29:50;;;;;;;1.08;0.80;;;36.70;43.90;;;;;;5107146;28;20194;-78
2023/03/06 03:32:21;;;;;;;1.33;0.90;;;36.70;44.30;;;;;;5105476;28;20190;-78
2023/03/06 03:34:52;;;;;;;2.22;0.88;;;36.90;44.90;;;;;;5103282;28;20207;-77
2023/03/06 03:37:23;;;;;;;3.22;0.82;;;37.00;45.10;;;;;;5098547;28;20230;-78
2023/03/06 03:39:55;;;;;;;2.30;1.00;;;37.00;44.00;;;;;;5095206;28;20199;-78
2023/03/06 03:42:28;;;;;;;1.27;0.90;;;37.00;43.80;;;;;;5112915;27;20195;-77
2023/03/06 03:44:59;;;;;;;4.10;1.20;;;37.20;42.60;;;;;;5096640;28;20191;-78
2023/03/06 03:47:30;;;;;;;1.50;0.93;;;37.20;42.20;;;;;;5093045;28;20202;-78
2023/03/06 03:50:01;;;;;;;1.05;0.82;;;37.30;42.30;;;;;;5093868;28;20198;-78
2023/03/06 03:52:32;;;;;;;4.20;1.00;;;37.40;42.70;;;;;;5105983;28;20606;-78
2023/03/06 03:55:03;;;;;;;4.97;1.10;;;37.50;41.90;;;;;;5113774;28;20198;-78
2023/03/06 03:57:38;;;;;;;1.92;1.00;;;37.50;41.10;;;;;;5112326;28;20696;-78
2023/03/06 04:00:14;;;;;;;5.03;0.90;;;37.50;41.10;;;;;;5093490;28;20198;-78
2023/03/06 04:02:46;;;;;;;3.00;0.90;;;37.50;42.10;;;;;;5112469;28;20680;-78
2023/03/06 04:05:18;;;;;;;3.90;0.90;;;37.60;40.90;;;;;;5113603;28;20195;-78
2023/03/06 04:07:49;;;;;;;4.82;1.30;;;37.60;40.30;;;;;;5104571;28;20194;-79
2023/03/06 04:10:20;;;;;;;4.65;1.00;;;37.60;39.90;;;;;;5096881;28;20201;-78
2023/03/06 04:12:53;;;;;;;1.42;0.80;;;37.60;40.20;;;;;;5097073;28;20195;-78
2023/03/06 04:15:24;;;;;;;2.30;0.80;;;37.30;40.50;;;;;;5102042;28;20190;-79
2023/03/06 04:17:56;;;;;;;4.60;1.15;;;37.30;40.60;;;;;;5112498;28;20221;-76
2023/03/06 04:20:29;;;;;;;2.13;0.88;;;37.30;41.10;;;;;;5112394;27;20640;-79
2023/03/06 04:23:00;;;;;;;2.13;0.88;;;37.30;40.70;;;;;;5108625;28;20194;-78
2023/03/06 04:25:31;;;;;;;1.85;1.10;;;37.30;40.70;;;;;;5092828;28;20218;-79
2023/03/06 04:28:05;;;;;;;1.48;0.90;;;37.30;40.60;;;;;;5104860;27;20198;-78
2023/03/06 04:30:36;;;;;;;1.85;0.80;;;37.30;40.00;;;;;;5092375;28;20279;-78
2023/03/06 04:33:07;;;;;;;2.92;0.90;;;37.10;39.70;;;;;;5092391;28;20202;-79
2023/03/06 04:35:38;;;;;;;2.40;1.00;;;37.00;39.60;;;;;;5093381;28;20330;-78
2023/03/06 04:38:10;;;;;;;2.63;0.80;;;37.00;39.70;;;;;;5113453;28;20198;-78
2023/03/06 04:40:41;;;;;;;2.35;1.08;;;37.20;38.40;;;;;;5104364;28;20186;-79
2023/03/06 04:43:14;;;;;;;3.17;1.23;;;37.30;39.00;;;;;;5114440;28;20691;-79
2023/03/06 04:45:48;;;;;;;1.55;0.85;;;37.20;39.00;;;;;;5101092;28;20194;-78
2023/03/06 04:48:21;;;;;;;4.07;0.93;;;37.10;40.40;;;;;;5101411;28;20588;-78
2023/03/06 04:50:52;;;;;;;1.70;0.90;;;37.10;39.50;;;;;;5105560;28;20194;-78
2023/03/06 04:53:25;;;;;;;2.25;0.95;;;37.20;38.00;;;;;;5107905;28;20206;-80
2023/03/06 04:55:56;;;;;;;2.80;0.80;;;37.00;37.90;;;;;;5098745;28;20222;-78
2023/03/06 04:58:29;;;;;;;2.25;0.80;;;37.10;38.40;;;;;;5102731;28;20206;-79
2023/03/06 05:01:00;;;;;;;1.20;0.90;;;37.00;38.20;;;;;;5103307;27;20194;-80
2023/03/06 05:03:31;;;;;;;1.80;1.00;;;37.10;38.40;;;;;;5099182;28;20194;-78
2023/03/06 05:06:02;;;;;;;1.58;0.80;;;37.20;39.30;;;;;;5093880;28;20195;-78
2023/03/06 05:08:33;;;;;;;1.85;0.60;;;37.40;39.00;;;;;;5104386;28;20198;-79
2023/03/06 05:11:07;;;;;;;1.48;0.70;;;37.50;35.80;;;;;;5113166;28;20676;-78
2023/03/06 05:13:41;;;;;;;3.65;0.73;;;37.70;33.10;;;;;;5097490;28;20676;-80
2023/03/06 05:16:12;;;;;;;2.05;0.75;;;37.70;33.90;;;;;;5096663;28;20198;-79
2023/03/06 05:18:43;;;;;;;2.38;0.68;;;37.90;33.50;;;;;;5095422;28;20195;-79
2023/03/06 05:21:14;;;;;;;1.30;0.70;;;38.10;31.50;;;;;;5092984;28;20203;-79
2023/03/06 05:23:46;;;;;;;1.27;0.60;;;38.10;32.00;;;;;;5093240;28;20203;-79
2023/03/06 05:26:18;;;;;;;3.75;0.70;;;38.30;32.40;;;;;;5109875;28;20237;-77
2023/03/06 05:28:51;;;;;;;3.95;0.60;;;38.30;32.60;;;;;;5113872;28;20653;-78
2023/03/06 05:31:25;;;;;;;1.75;0.60;;;38.40;31.80;;;;;;5111054;27;20201;-78
2023/03/06 05:33:57;;;;;;;1.33;0.55;;;38.60;31.60;;;;;;5107691;28;20199;-78
2023/03/06 05:36:28;;;;;;;7.50;0.60;;;38.70;30.70;;;;;;5107319;28;20226;-79
2023/03/06 05:38:59;;;;;;;1.65;0.60;;;38.90;30.40;;;;;;5112950;28;20194;-79
2023/03/06 05:41:30;;;;;;;2.70;0.60;;;39.00;30.00;;;;;;5105980;28;20194;-78
2023/03/06 05:44:03;;;;;;;1.30;0.55;;;39.00;29.70;;;;;;5097447;28;20198;-78
2023/03/06 05:46:36;;;;;;;4.00;0.60;;;39.00;29.80;;;;;;5095330;28;20657;-79
2023/03/06 05:49:07;;;;;;;2.47;0.70;;;39.10;29.90;;;;;;5103230;28;20278;-79
2023/03/06 05:51:38;;;;;;;2.53;0.60;;;39.30;31.20;;;;;;5093093;28;20198;-79
2023/03/06 05:54:09;;;;;;;2.95;0.73;;;39.30;30.90;;;;;;5098653;28;20219;-79
2023/03/06 05:56:40;;;;;;;1.27;0.50;;;39.40;31.20;;;;;;5112086;28;20213;-79
2023/03/06 05:59:14;;;;;;;1.90;0.65;;;39.60;30.10;;;;;;5110831;28;20225;-78
2023/03/06 06:01:45;;;;;;;0.90;0.60;;;39.10;30.00;;;;;;5098916;28;20194;-78
2023/03/06 06:04:16;;;;;;;3.63;0.70;;;38.60;29.40;;;;;;5106811;28;20205;-79
2023/03/06 06:06:49;;;;;;;3.08;0.50;;;38.70;29.80;;;;;;5110988;28;20656;-79
2023/03/06 06:09:21;;;;;;;0.50;0.50;;;39.00;30.00;;;;;;5111163;28;20205;-80
2023/03/06 06:11:54;;;;;;;2.00;0.77;;;39.30;30.60;;;;;;5101116;28;20282;-79
2023/03/06 06:14:28;;;;;;;0.95;0.47;;;39.40;29.50;;;;;;5091029;28;20201;-78
2023/03/06 06:16:59;;;;;;;3.92;0.65;;;39.40;29.40;;;;;;5109433;28;20217;-79
2023/03/06 06:19:32;;;;;;;2.25;0.50;;;39.60;29.80;;;;;;5093892;28;20194;-78
2023/03/06 06:22:03;;;;;;;0.98;0.50;;;39.80;29.90;;;;;;5093775;28;20641;-77
2023/03/06 06:24:34;;;;;;;2.90;0.63;;;39.90;29.40;;;;;;5093549;28;20554;-77
2023/03/06 06:27:06;;;;;;;0.85;0.57;;;39.90;29.40;;;;;;5109420;28;20202;-78
2023/03/06 06:29:39;;;;;;;2.08;0.73;;;40.20;29.00;;;;;;5099525;28;20565;-77
2023/03/06 06:32:10;;;;;;;3.92;1.00;;;40.30;28.40;;;;;;5105145;28;20198;-78
2023/03/06 06:34:41;;;;;;;2.67;0.70;;;39.90;28.10;;;;;;5092274;28;20672;-78
2023/03/06 06:37:12;;;;;;;2.65;0.50;;;40.20;27.80;;;;;;5092840;28;20234;-78
2023/03/06 06:39:44;;;;;;;3.50;0.70;;;40.30;27.50;;;;;;5091271;28;20210;-77
2023/03/06 06:42:15;;;;;;;1.25;0.60;;;40.50;27.10;;;;;;5093181;28;20703;-78
2023/03/06 06:44:48;;;;;;;2.08;0.50;;;40.20;27.60;;;;;;5089276;28;20571;-77
2023/03/06 06:47:19;;;;;;;3.45;0.60;;;40.30;27.30;;;;;;5091207;28;20573;-78
2023/03/06 06:49:53;;;;;;;2.58;0.85;;;40.50;28.00;;;;;;5116519;28;20554;-78
2023/03/06 06:52:25;;;;;;;3.15;0.80;;;40.60;26.90;;;;;;5092346;28;20221;-77
2023/03/06 06:54:56;;;;;;;1.38;0.50;;;40.60;27.10;;;;;;5108432;28;20198;-76
2023/03/06 06:57:27;;;;;;;3.47;0.80;;;40.30;27.40;;;;;;5105067;28;20225;-78
2023/03/06 07:00:00;;;;;;;4.05;0.80;;;40.00;26.40;;;;;;5109899;28;20202;-77
2023/03/06 07:02:31;;;;;;;1.65;0.60;;;39.90;27.30;;;;;;5114005;27;20201;-77
2023/03/06 07:05:02;;;;;;;2.70;0.55;;;40.20;26.70;;;;;;5110740;28;20194;-78
2023/03/06 07:07:35;;;;;;;1.42;0.70;;;40.50;27.20;;;;;;5114703;28;20202;-77
2023/03/06 07:10:07;;;;;;;1.75;0.80;;;40.90;26.70;;;;;;5111655;28;20221;-77
2023/03/06 07:12:39;;;;;;;2.85;0.50;;;41.10;27.00;;;;;;5098599;28;20649;-78
2023/03/06 07:15:13;;;;;;;1.60;0.70;;;41.10;26.70;;;;;;5109804;28;20201;-78
2023/03/06 07:17:44;;;;;;;1.85;0.70;;;41.40;26.00;;;;;;5113775;28;20221;-78
2023/03/06 07:20:17;;;;;;;3.47;0.80;;;41.50;25.90;;;;;;5095486;28;20207;-76
2023/03/06 07:22:50;;;;;;;3.83;0.82;;;40.80;26.10;;;;;;5096079;28;20600;-78
2023/03/06 07:25:22;;;;;;;1.83;0.70;;;40.70;26.40;;;;;;5095756;28;20243;-77
2023/03/06 07:27:55;;;;;;;1.90;0.80;;;40.30;26.80;;;;;;5094426;28;20214;-78
2023/03/06 07:30:28;;;;;;;4.32;0.73;;;40.20;27.20;;;;;;5100337;28;20209;-78
2023/03/06 07:33:00;;;;;;;3.38;1.40;;;39.90;27.30;;;;;;5109491;28;20191;-78
2023/03/06 07:35:31;;;;;;;4.15;1.33;;;39.80;27.40;;;;;;5112076;28;20214;-79
2023/03/06 07:38:02;;;;;;;2.90;0.90;;;39.70;26.90;;;;;;5105277;28;20229;-79
2023/03/06 07:40:33;;;;;;;2.10;0.90;;;39.70;27.20;;;;;;5096181;28;20194;-77
2023/03/06 07:43:04;;;;;;;2.08;0.98;;;39.80;31.60;;;;;;5096239;28;20191;-78
2023/03/06 07:45:37;;;;;;;4.32;1.20;;;39.50;33.80;;;;;;5094520;28;20634;-77
2023/03/06 07:48:09;;;;;;;2.88;1.20;;;39.30;35.20;;;;;;5112626;28;20201;-76
2023/03/06 07:50:40;;;;;;;3.25;1.02;;;39.00;35.70;;;;;;5115706;28;20195;-78
2023/03/06 07:53:13;;;;;;;2.63;1.30;;;38.50;36.40;;;;;;5101140;28;20198;-78
2023/03/06 07:55:44;;;;;;;4.03;1.27;;;38.30;36.80;;;;;;5113418;28;20190;-77
2023/03/06 07:58:16;;;;;;;1.80;1.17;;;37.90;37.50;;;;;;5113882;28;20226;-78
2023/03/06 08:00:52;;;;;;;3.25;1.20;;;37.60;38.20;;;;;;5111689;28;20190;-78
2023/03/06 08:03:23;;;;;;;3.55;1.33;;;37.30;38.70;;;;;;5113750;28;20216;-77
2023/03/06 08:05:56;;;;;;;2.78;1.25;;;37.10;39.30;;;;;;5097273;28;20190;-78
2023/03/06 08:08:27;;;;;;;5.50;1.85;;;36.70;40.10;;;;;;5103940;28;20290;-78
2023/03/06 08:10:58;;;;;;;3.78;1.65;;;36.40;40.80;;;;;;5105659;28;20195;-78
2023/03/06 08:13:30;;;;;;;4.72;1.70;;;36.20;41.60;;;;;;5106162;28;20728;-78
2023/03/06 08:16:03;;;;;;;2.70;1.63;;;35.90;42.10;;;;;;5093842;28;20195;-77
2023/03/06 08:18:34;;;;;;;4.47;1.60;;;35.80;42.80;;;;;;5105642;28;20223;-77
2023/03/06 08:21:07;;;;;;;7.00;2.17;;;35.60;43.00;;;;;;5106492;28;20206;-77
2023/03/06 08:23:38;;;;;;;5.05;2.30;;;35.40;43.50;;;;;;5093161;28;20560;-79
2023/03/06 08:26:12;;;;;;;2.90;1.80;;;35.20;43.50;;;;;;5107832;28;20218;-79
2023/03/06 08:28:43;;;;;;;5.88;2.03;;;35.10;43.80;;;;;;5094108;28;20205;-79
2023/03/06 08:31:23;;;;;;;4.20;1.90;;;35.00;44.10;;;;;;5092711;28;20195;-79
2023/03/06 08:33:54;;;;;;;4.43;1.70;;;34.90;44.70;;;;;;5096175;28;20684;-78
2023/03/06 08:36:25;;;;;;;3.63;1.83;;;34.70;45.80;;;;;;5112144;28;20199;-77
2023/03/06 08:38:57;;;;;;;8.32;2.10;;;34.60;47.10;;;;;;5100723;28;20230;-77
2023/03/06 08:41:28;;;;;;;5.47;2.00;;;34.40;47.20;;;;;;5092905;28;20543;-78
2023/03/06 08:43:59;;;;;;;6.43;2.80;;;34.30;48.10;;;;;;5092408;28;20199;-78
2023/03/06 08:46:33;;;;;;;7.20;2.78;;;34.20;48.80;;;;;;5098336;28;20203;-77
2023/03/06 08:49:04;;;;;;;4.75;2.42;;;34.00;49.50;;;;;;5111715;28;20691;-76
2023/03/06 08:51:35;;;;;;;5.22;2.25;;;33.90;50.30;;;;;;5112198;28;20588;-77
2023/03/06 08:54:06;;;;;;;6.55;2.40;;;33.70;51.90;;;;;;5102747;28;20195;-79
2023/03/06 08:56:37;;;;;;;6.68;2.60;;;33.50;52.30;;;;;;5100491;28;20575;-79
2023/03/06 08:59:09;;;;;;;6.72;2.45;;;33.30;53.70;;;;;;5092207;28;20250;-78
2023/03/06 09:01:43;;;;;;;5.38;2.00;;;33.20;55.70;;;;;;5104410;28;20203;-78
2023/03/06 09:04:15;;;;;;;6.53;2.60;;;33.10;57.20;;;;;;5112617;28;20223;-78
2023/03/06 09:06:46;;;;;;;8.50;2.72;;;33.00;57.60;;;;;;5107370;28;20665;-78
2023/03/06 09:09:17;;;;;;;8.48;2.60;;;32.80;59.20;;;;;;5100356;28;20677;-78
2023/03/06 09:11:50;;;;;;;11.48;3.08;;;32.70;62.00;;;;;;5101898;28;20210;-76
2023/03/06 09:14:21;;;;;;;9.68;3.08;;;32.30;71.20;;;;;;5093086;28;20262;-78
2023/03/06 09:16:54;;;;;;;12.15;3.10;;;32.20;76.40;;;;;;5091113;28;20657;-78
2023/03/06 09:19:25;;;;;;;9.32;2.97;;;32.00;82.10;;;;;;5091758;28;20237;-78
2023/03/06 09:21:56;;;;;;;10.32;3.20;;;31.90;86.10;;;;;;5092189;28;20202;-79
2023/03/06 09:24:27;;;;;;;14.40;2.85;;;31.80;89.80;;;;;;5109691;28;20207;-79
2023/03/06 09:26:58;;;;;;;11.30;3.13;;;31.80;91.30;;;;;;5107464;28;20645;-78
2023/03/06 09:29:29;;;;;;;13.02;3.22;;;31.70;92.30;;;;;;5094240;28;20199;-79
2023/03/06 09:32:02;;;;;;;8.73;2.83;;;31.60;93.60;;;;;;5104053;28;20199;-78
2023/03/06 09:34:33;;;;;;;15.60;3.50;;;31.50;94.90;;;;;;5106675;27;20222;-79
2023/03/06 09:37:05;;;;;;;16.92;4.30;;;31.40;98.60;;;;;;5104195;28;20202;-79
2023/03/06 09:39:36;;;;;;;13.93;4.28;;;31.30;99.90;;;;;;5108119;28;20596;-79
2023/03/06 09:42:13;;;;;;;15.05;3.60;;;31.20;99.90;;;;;;5098865;28;20592;-79
2023/03/06 09:44:47;;;;;;;17.75;4.57;;;31.10;99.90;;;;;;5091800;28;20654;-78
2023/03/06 09:47:46;;;;;;;15.10;4.25;;;30.90;99.90;;;;;;5103843;28;20195;-78
2023/03/06 09:50:32;;;;;;;15.68;3.95;;;30.80;99.90;;;;;;5091260;28;20257;-78
2023/03/06 09:53:30;;;;;;;15.05;4.25;;;30.70;99.90;;;;;;5096767;28;20658;-80
2023/03/06 09:56:07;;;;;;;15.93;4.25;;;30.70;99.90;;;;;;5110156;28;20561;-79
2023/03/06 09:58:45;;;;;;;14.38;3.67;;;30.70;99.90;;;;;;5092376;28;20592;-79
2023/03/06 10:01:21;;;;;;;15.32;3.83;;;30.60;99.90;;;;;;5105178;28;20197;-78
2023/03/06 10:03:59;;;;;;;16.48;4.10;;;30.60;99.90;;;;;;5092381;28;20217;-78
2023/03/06 10:06:32;;;;;;;14.75;3.70;;;30.50;99.90;;;;;;5091165;28;20214;-79
2023/03/06 10:09:06;;;;;;;9.27;2.95;;;30.50;99.90;;;;;;5096925;28;20585;-78
2023/03/06 10:11:43;;;;;;;10.15;3.45;;;30.60;99.90;;;;;;5108454;28;20205;-77
2023/03/06 10:14:23;;;;;;;12.52;3.50;;;30.60;99.90;;;;;;5112050;28;20194;-79
2023/03/06 10:16:55;;;;;;;8.65;3.15;;;30.60;99.90;;;;;;5104556;28;20198;-78
2023/03/06 10:19:33;;;;;;;10.07;3.30;;;30.70;99.90;;;;;;5106860;28;20219;-79
2023/03/06 10:22:12;;;;;;;9.10;2.80;;;30.70;99.90;;;;;;5108899;28;20591;-78
2023/03/06 10:24:52;;;;;;;9.20;3.13;;;30.60;99.90;;;;;;5091150;28;20702;-79
2023/03/06 10:27:36;;;;;;;9.73;3.13;;;30.70;99.90;;;;;;5106084;28;20190;-78
2023/03/06 10:30:24;;;;;;;10.77;3.05;;;30.70;99.90;;;;;;5110818;28;20194;-79
2023/03/06 10:32:58;;;;;;;11.23;3.30;;;30.80;99.90;;;;;;5089833;28;20716;-79
2023/03/06 10:35:45;;;;;;;9.35;2.97;;;30.80;99.90;;;;;;5092853;28;20699;-81
2023/03/06 10:38:21;;;;;;;8.55;2.80;;;30.80;99.90;;;;;;5104600;28;20271;-79
2023/03/06 10:41:08;;;;;;;11.35;2.70;;;30.80;99.90;;;;;;5095107;28;20573;-79
2023/03/06 10:43:40;;;;;;;9.38;2.90;;;30.70;99.90;;;;;;5096229;28;20187;-79
2023/03/06 10:46:14;;;;;;;9.02;3.35;;;30.60;99.90;;;;;;5109553;28;20191;-78
2023/03/06 10:48:58;;;;;;;11.85;3.53;;;30.50;99.90;;;;;;5095730;28;20658;-79
2023/03/06 10:51:32;;;;;;;11.43;3.40;;;30.50;99.90;;;;;;5089763;28;20187;-80
2023/03/06 10:54:05;;;;;;;9.48;3.17;;;30.40;99.90;;;;;;5091884;28;20195;-79
2023/03/06 10:56:38;;;;;;;12.13;3.53;;;30.30;99.90;;;;;;5091698;28;20202;-78
2023/03/06 10:59:13;;;;;;;12.27;3.65;;;30.30;99.90;;;;;;5097815;28;20226;-78
2023/03/06 11:01:45;;;;;;;13.32;3.40;;;30.20;99.90;;;;;;5099952;28;20191;-77
2023/03/06 11:04:34;;;;;;;7.03;2.97;;;30.20;99.90;;;;;;5091186;28;20195;-77
2023/03/06 11:07:18;;;;;;;10.60;3.20;;;30.20;99.90;;;;;;5103535;28;20199;-78
2023/03/06 11:10:03;;;;;;;10.45;3.33;;;30.20;99.90;;;;;;5111103;28;20206;-78
2023/03/06 11:12:35;;;;;;;12.43;3.72;;;30.20;99.90;;;;;;5108184;28;20203;-79
2023/03/06 11:15:23;;;;;;;17.98;4.53;;;30.20;99.90;;;;;;5107086;28;20543;-78
2023/03/06 11:17:58;;;;;;;15.43;4.60;;;30.20;99.90;;;;;;5091330;28;20196;-79
2023/03/06 11:20:33;;;;;;;15.88;4.60;;;30.20;99.90;;;;;;5090370;28;20194;-78
2023/03/06 11:23:09;;;;;;;16.45;4.47;;;30.20;99.90;;;;;;5107478;28;20578;-76
2023/03/06 11:25:47;;;;;;;17.80;4.65;;;30.10;99.90;;;;;;5109682;28;20226;-78
2023/03/06 11:28:25;;;;;;;19.73;5.10;;;30.00;99.90;;;;;;5106411;28;20302;-78
2023/03/06 11:31:00;;;;;;;17.98;4.68;;;29.90;99.90;;;;;;5100477;28;20599;-78
2023/03/06 11:33:36;;;;;;;18.70;4.55;;;29.80;99.90;;;;;;5099832;28;20611;-78
2023/03/06 11:36:16;;;;;;;19.77;4.60;;;29.70;99.90;;;;;;5098768;28;20198;-78
2023/03/06 11:38:52;;;;;;;13.93;3.90;;;29.60;99.90;;;;;;5109403;28;20715;-78
2023/03/06 11:41:34;;;;;;;12.10;3.63;;;29.40;99.90;;;;;;5100476;28;20202;-77
2023/03/06 11:44:15;;;;;;;15.27;3.88;;;29.30;99.90;;;;;;5110420;28;20664;-78
2023/03/06 11:46:50;;;;;;;17.80;3.38;;;29.20;99.90;;;;;;5107273;28;20606;-77
2023/03/06 11:49:27;;;;;;;13.80;3.42;;;29.10;99.90;;;;;;5096421;28;20672;-77
2023/03/06 11:52:01;;;;;;;14.63;3.60;;;29.00;99.90;;;;;;5101968;28;20194;-78
2023/03/06 11:54:34;;;;;;;12.10;3.28;;;28.90;99.90;;;;;;5112915;28;20197;-78
2023/03/06 11:57:09;;;;;;;16.60;3.92;;;28.80;99.90;;;;;;5105349;28;20695;-77
2023/03/06 11:59:52;;;;;;;15.55;3.65;;;28.80;99.90;;;;;;5105213;28;20562;-78
2023/03/06 12:02:39;;;;;;;14.35;3.70;;;28.70;99.90;;;;;;5094846;28;20198;-79
2023/03/06 12:05:29;;;;;;;17.33;4.10;;;28.60;99.90;;;;;;5105601;28;20243;-77
2023/03/06 12:08:15;;;;;;;15.73;4.00;;;28.60;99.90;;;;;;5101182;28;20218;-77
2023/03/06 12:10:51;;;;;;;15.65;4.00;;;28.50;99.90;;;;;;5112356;28;20198;-78
2023/03/06 12:14:06;;;;;;;16.88;4.10;;;28.40;99.90;;;;;;5113910;28;20198;-78
2023/03/06 12:16:54;;;;;;;19.23;4.32;;;28.40;99.90;;;;;;5062484;28;20275;-78
2023/03/06 12:19:41;;;;;;;16.13;3.50;;;28.30;99.90;;;;;;5098863;28;20230;-77
2023/03/06 12:22:32;;;;;;;18.38;4.38;;;28.20;99.90;;;;;;5100445;28;20199;-78
2023/03/06 12:25:28;;;;;;;17.67;4.30;;;28.10;99.90;;;;;;5092800;28;20223;-78
2023/03/06 12:28:18;;;;;;;18.83;4.20;;;28.10;99.90;;;;;;5083260;28;20195;-78
2023/03/06 12:31:13;;;;;;;17.58;3.97;;;28.00;99.90;;;;;;5106399;28;20573;-78
2023/03/06 12:33:52;;;;;;;20.15;4.15;;;27.90;99.90;;;;;;5115987;28;20206;-79
2023/03/06 12:36:35;;;;;;;15.93;3.97;;;27.90;99.90;;;;;;5095453;28;20321;-78
2023/03/06 12:39:14;;;;;;;18.58;4.63;;;27.80;99.90;;;;;;5095330;28;20708;-78
2023/03/06 12:41:57;;;;;;;20.55;4.28;;;27.80;99.90;;;;;;5105255;28;20677;-77
2023/03/06 12:44:44;;;;;;;15.80;4.03;;;27.70;99.90;;;;;;5106072;28;20191;-79
2023/03/06 12:47:18;;;;;;;13.88;3.72;;;27.70;99.90;;;;;;5103716;28;20191;-77
2023/03/06 12:49:55;;;;;;;16.70;4.00;;;27.70;99.90;;;;;;5114478;28;20190;-78
2023/03/06 12:52:29;;;;;;;15.38;3.92;;;27.60;99.90;;;;;;5111980;28;20646;-78
2023/03/06 12:55:03;;;;;;;14.02;3.65;;;27.60;99.90;;;;;;5093492;28;20195;-78
2023/03/06 12:57:34;;;;;;;17.60;3.97;;;27.50;99.90;;;;;;5092811;28;20195;-78
2023/03/06 13:00:09;;;;;;;18.38;4.28;;;27.50;99.90;;;;;;5109284;28;20684;-77
2023/03/06 13:03:03;;;;;;;25.23;4.93;;;27.50;99.90;;;;;;5098552;28;20201;-79
2023/03/06 13:05:54;;;;;;;16.45;4.15;;;27.30;99.90;;;;;;5107201;28;20187;-79
2023/03/06 13:09:02;;;;;;;14.57;3.78;;;27.20;99.90;;;;;;5107189;28;20201;-78
2023/03/06 13:12:03;;;;;;;16.65;3.47;;;27.20;99.90;;;;;;5104904;28;20263;-79
2023/03/06 13:14:54;;;;;;;17.05;3.90;;;27.20;99.90;;;;;;5100153;28;20658;-78
2023/03/06 13:17:36;;;;;;;16.77;3.80;;;27.20;99.90;;;;;;5092349;28;20203;-78
2023/03/06 13:20:36;;;;;;;15.43;3.97;;;27.10;99.90;;;;;;5090717;28;20765;-79